HBLWW EHEH-EHRD
Flight info
| Callsign | HBLWW |
|---|---|
| Flight time | 0h 32m |
| Altitude | 6000 |
| Route | INKET |
| Aircraft | DA42/L-SBDGRY/S |
Departure
| Time | 2026-05-05 13:18 |
|---|---|
| Airport | Eindhoven Airport (EHEH) |
Arrival
| Time | 2026-05-05 13:51 |
|---|---|
| Airport | Rotterdam The Hague Airport (EHRD) |
| Time | Latitude | Longitude | Altitude | Speed | Heading |
|---|---|---|---|---|---|
| 2026-05-05 12:41 | 51.45497 | 5.38492 | 78 ft | 0 kts | 356° |
| 2026-05-05 13:04 | 51.45498 | 5.38493 | 78 ft | 0 kts | 4° |
| 2026-05-05 13:04 | 51.45504 | 5.38498 | 78 ft | 1 kts | 47° |
| 2026-05-05 13:04 | 51.45512 | 5.38513 | 78 ft | 2 kts | 45° |
| 2026-05-05 13:05 | 51.45525 | 5.38534 | 78 ft | 3 kts | 44° |
| 2026-05-05 13:05 | 51.45544 | 5.38558 | 78 ft | 3 kts | 36° |
| 2026-05-05 13:05 | 51.45566 | 5.38583 | 78 ft | 4 kts | 34° |
| 2026-05-05 13:05 | 51.45590 | 5.38609 | 78 ft | 4 kts | 33° |
| 2026-05-05 13:06 | 51.45617 | 5.38637 | 78 ft | 4 kts | 35° |
| 2026-05-05 13:06 | 51.45644 | 5.38668 | 78 ft | 4 kts | 34° |
| 2026-05-05 13:06 | 51.45674 | 5.38700 | 78 ft | 5 kts | 31° |
| 2026-05-05 13:06 | 51.45703 | 5.38734 | 78 ft | 5 kts | 37° |
| 2026-05-05 13:07 | 51.45734 | 5.38768 | 78 ft | 5 kts | 35° |
| 2026-05-05 13:07 | 51.45763 | 5.38802 | 78 ft | 0 kts | 43° |
| 2026-05-05 13:07 | 51.45765 | 5.38805 | 78 ft | 0 kts | 37° |
| 2026-05-05 13:07 | 51.45773 | 5.38813 | 78 ft | 1 kts | 30° |
| 2026-05-05 13:08 | 51.45787 | 5.38825 | 78 ft | 2 kts | 31° |
| 2026-05-05 13:08 | 51.45804 | 5.38844 | 78 ft | 3 kts | 38° |
| 2026-05-05 13:08 | 51.45824 | 5.38869 | 78 ft | 4 kts | 34° |
| 2026-05-05 13:08 | 51.45857 | 5.38904 | 78 ft | 6 kts | 33° |
| 2026-05-05 13:09 | 51.45880 | 5.38929 | 78 ft | 0 kts | 31° |
| 2026-05-05 13:09 | 51.45880 | 5.38930 | 78 ft | 0 kts | 31° |
| 2026-05-05 13:09 | 51.45916 | 5.38970 | 78 ft | 8 kts | 34° |
| 2026-05-05 13:09 | 51.45969 | 5.38978 | 78 ft | 8 kts | 324° |
| 2026-05-05 13:10 | 51.46005 | 5.38905 | 78 ft | 8 kts | 304° |
| 2026-05-05 13:10 | 51.46040 | 5.38824 | 78 ft | 7 kts | 304° |
| 2026-05-05 13:10 | 51.46044 | 5.38815 | 78 ft | 0 kts | 302° |
| 2026-05-05 13:10 | 51.46045 | 5.38814 | 78 ft | 1 kts | 302° |
| 2026-05-05 13:11 | 51.46074 | 5.38749 | 78 ft | 13 kts | 308° |
| 2026-05-05 13:11 | 51.46135 | 5.38610 | 78 ft | 14 kts | 305° |
| 2026-05-05 13:11 | 51.46173 | 5.38503 | 78 ft | 1 kts | 272° |
| 2026-05-05 13:11 | 51.46171 | 5.38482 | 78 ft | 2 kts | 249° |
| 2026-05-05 13:12 | 51.46156 | 5.38454 | 78 ft | 4 kts | 216° |
| 2026-05-05 13:12 | 51.46117 | 5.38410 | 78 ft | 11 kts | 215° |
| 2026-05-05 13:12 | 51.46023 | 5.38304 | 78 ft | 18 kts | 214° |
| 2026-05-05 13:12 | 51.45919 | 5.38191 | 78 ft | 17 kts | 216° |
| 2026-05-05 13:13 | 51.45822 | 5.38082 | 78 ft | 16 kts | 216° |
| 2026-05-05 13:13 | 51.45729 | 5.37977 | 78 ft | 16 kts | 214° |
| 2026-05-05 13:13 | 51.45635 | 5.37869 | 78 ft | 16 kts | 213° |
| 2026-05-05 13:13 | 51.45536 | 5.37759 | 78 ft | 17 kts | 216° |
| 2026-05-05 13:14 | 51.45432 | 5.37641 | 78 ft | 18 kts | 214° |
| 2026-05-05 13:14 | 51.45323 | 5.37519 | 78 ft | 19 kts | 213° |
| 2026-05-05 13:14 | 51.45212 | 5.37396 | 78 ft | 19 kts | 214° |
| 2026-05-05 13:14 | 51.45099 | 5.37270 | 78 ft | 20 kts | 215° |
| 2026-05-05 13:15 | 51.44985 | 5.37141 | 78 ft | 20 kts | 215° |
| 2026-05-05 13:15 | 51.44871 | 5.37015 | 78 ft | 20 kts | 212° |
| 2026-05-05 13:15 | 51.44782 | 5.36996 | 78 ft | 0 kts | 135° |
| 2026-05-05 13:17 | 51.44762 | 5.37029 | 78 ft | 11 kts | 132° |
| 2026-05-05 13:17 | 51.44738 | 5.37133 | 78 ft | 10 kts | 53° |
| 2026-05-05 13:18 | 51.44839 | 5.37252 | 78 ft | 46 kts | 34° |
| 2026-05-05 13:18 | 51.45250 | 5.37726 | 168 ft | 84 kts | 39° |
| 2026-05-05 13:18 | 51.45731 | 5.38288 | 507 ft | 88 kts | 37° |
| 2026-05-05 13:18 | 51.46216 | 5.38836 | 871 ft | 87 kts | 33° |
| 2026-05-05 13:19 | 51.46710 | 5.39390 | 1193 ft | 88 kts | 33° |
| 2026-05-05 13:19 | 51.47221 | 5.39947 | 1532 ft | 88 kts | 34° |
| 2026-05-05 13:19 | 51.47716 | 5.40506 | 1860 ft | 87 kts | 34° |
| 2026-05-05 13:19 | 51.48213 | 5.41057 | 2181 ft | 88 kts | 35° |
| 2026-05-05 13:20 | 51.48718 | 5.41619 | 2482 ft | 90 kts | 35° |
| 2026-05-05 13:20 | 51.49229 | 5.42188 | 2798 ft | 91 kts | 34° |
| 2026-05-05 13:20 | 51.49748 | 5.42763 | 3112 ft | 92 kts | 34° |
| 2026-05-05 13:20 | 51.50277 | 5.43351 | 3423 ft | 93 kts | 34° |
| 2026-05-05 13:21 | 51.50871 | 5.43706 | 3722 ft | 97 kts | 359° |
| 2026-05-05 13:21 | 51.51479 | 5.43205 | 4024 ft | 104 kts | 321° |
| 2026-05-05 13:21 | 51.51976 | 5.42372 | 4331 ft | 105 kts | 317° |
| 2026-05-05 13:21 | 51.52469 | 5.41485 | 4639 ft | 107 kts | 316° |
| 2026-05-05 13:22 | 51.52965 | 5.40579 | 4856 ft | 116 kts | 316° |
| 2026-05-05 13:22 | 51.53548 | 5.39508 | 4897 ft | 136 kts | 315° |
| 2026-05-05 13:22 | 51.54196 | 5.38299 | 4895 ft | 147 kts | 314° |
| 2026-05-05 13:22 | 51.54871 | 5.37032 | 4894 ft | 151 kts | 313° |
| 2026-05-05 13:23 | 51.55561 | 5.35737 | 4890 ft | 154 kts | 314° |
| 2026-05-05 13:23 | 51.56245 | 5.34397 | 4882 ft | 157 kts | 306° |
| 2026-05-05 13:23 | 51.56724 | 5.32805 | 4883 ft | 159 kts | 298° |
| 2026-05-05 13:23 | 51.57165 | 5.31189 | 4887 ft | 159 kts | 296° |
| 2026-05-05 13:24 | 51.57609 | 5.29545 | 4889 ft | 160 kts | 296° |
| 2026-05-05 13:24 | 51.58050 | 5.27913 | 4887 ft | 160 kts | 297° |
| 2026-05-05 13:24 | 51.58493 | 5.26281 | 4885 ft | 160 kts | 297° |
| 2026-05-05 13:24 | 51.58939 | 5.24633 | 4881 ft | 160 kts | 297° |
| 2026-05-05 13:25 | 51.59383 | 5.22994 | 4882 ft | 159 kts | 297° |
| 2026-05-05 13:25 | 51.59822 | 5.21375 | 4888 ft | 159 kts | 297° |
| 2026-05-05 13:25 | 51.60265 | 5.19738 | 4888 ft | 160 kts | 297° |
| 2026-05-05 13:25 | 51.60709 | 5.18096 | 4884 ft | 160 kts | 297° |
| 2026-05-05 13:26 | 51.61153 | 5.16456 | 4884 ft | 160 kts | 297° |
| 2026-05-05 13:26 | 51.61595 | 5.14817 | 4882 ft | 160 kts | 297° |
| 2026-05-05 13:26 | 51.62036 | 5.13185 | 4883 ft | 159 kts | 297° |
| 2026-05-05 13:26 | 51.62497 | 5.11571 | 4881 ft | 158 kts | 306° |
| 2026-05-05 13:27 | 51.63192 | 5.10216 | 4889 ft | 156 kts | 314° |
| 2026-05-05 13:27 | 51.63912 | 5.08919 | 4886 ft | 156 kts | 315° |
| 2026-05-05 13:27 | 51.64644 | 5.07606 | 4888 ft | 156 kts | 315° |
| 2026-05-05 13:27 | 51.65371 | 5.06303 | 4888 ft | 156 kts | 315° |
| 2026-05-05 13:28 | 51.66094 | 5.05003 | 4887 ft | 156 kts | 315° |
| 2026-05-05 13:28 | 51.66822 | 5.03696 | 4886 ft | 156 kts | 315° |
| 2026-05-05 13:28 | 51.67544 | 5.02395 | 4886 ft | 156 kts | 315° |
| 2026-05-05 13:28 | 51.68268 | 5.01093 | 4887 ft | 156 kts | 315° |
| 2026-05-05 13:29 | 51.68988 | 4.99795 | 4886 ft | 156 kts | 315° |
| 2026-05-05 13:29 | 51.69712 | 4.98490 | 4887 ft | 156 kts | 315° |
| 2026-05-05 13:29 | 51.70440 | 4.97177 | 4888 ft | 156 kts | 315° |
| 2026-05-05 13:29 | 51.71154 | 4.95889 | 4886 ft | 156 kts | 315° |
| 2026-05-05 13:30 | 51.71879 | 4.94581 | 4890 ft | 156 kts | 315° |
| 2026-05-05 13:30 | 51.72598 | 4.93280 | 4892 ft | 156 kts | 315° |
| 2026-05-05 13:30 | 51.73328 | 4.91961 | 4889 ft | 157 kts | 315° |
| 2026-05-05 13:30 | 51.74050 | 4.90657 | 4886 ft | 156 kts | 315° |
| 2026-05-05 13:31 | 51.74772 | 4.89350 | 4885 ft | 156 kts | 315° |
| 2026-05-05 13:31 | 51.75494 | 4.88042 | 4883 ft | 156 kts | 315° |
| 2026-05-05 13:31 | 51.76224 | 4.86720 | 4885 ft | 156 kts | 315° |
| 2026-05-05 13:31 | 51.76942 | 4.85416 | 4886 ft | 156 kts | 315° |
| 2026-05-05 13:32 | 51.77667 | 4.84105 | 4883 ft | 156 kts | 316° |
| 2026-05-05 13:32 | 51.78384 | 4.82802 | 4881 ft | 156 kts | 315° |
| 2026-05-05 13:32 | 51.79103 | 4.81502 | 4882 ft | 155 kts | 315° |
| 2026-05-05 13:32 | 51.79821 | 4.80195 | 4886 ft | 156 kts | 315° |
| 2026-05-05 13:33 | 51.80546 | 4.78879 | 4888 ft | 156 kts | 315° |
| 2026-05-05 13:33 | 51.81266 | 4.77569 | 4886 ft | 157 kts | 315° |
| 2026-05-05 13:33 | 51.82103 | 4.76481 | 4877 ft | 155 kts | 324° |
| 2026-05-05 13:33 | 51.82620 | 4.74944 | 4885 ft | 159 kts | 296° |
| 2026-05-05 13:34 | 51.83087 | 4.73325 | 4886 ft | 158 kts | 300° |
| 2026-05-05 13:34 | 51.83599 | 4.71775 | 4886 ft | 158 kts | 303° |
| 2026-05-05 13:34 | 51.84155 | 4.70233 | 4885 ft | 157 kts | 305° |
| 2026-05-05 13:34 | 51.84721 | 4.68713 | 4884 ft | 157 kts | 305° |
| 2026-05-05 13:35 | 51.85290 | 4.67203 | 4887 ft | 157 kts | 306° |
| 2026-05-05 13:35 | 51.85856 | 4.65718 | 4890 ft | 157 kts | 306° |
| 2026-05-05 13:35 | 51.86431 | 4.64204 | 4891 ft | 158 kts | 306° |
| 2026-05-05 13:35 | 51.87005 | 4.62697 | 4888 ft | 158 kts | 306° |
| 2026-05-05 13:36 | 51.87583 | 4.61177 | 4884 ft | 158 kts | 306° |
| 2026-05-05 13:36 | 51.88157 | 4.59667 | 4881 ft | 157 kts | 305° |
| 2026-05-05 13:36 | 51.88724 | 4.58176 | 4891 ft | 157 kts | 306° |
| 2026-05-05 13:36 | 51.89283 | 4.56649 | 4884 ft | 159 kts | 297° |
| 2026-05-05 13:37 | 51.89266 | 4.54862 | 4890 ft | 165 kts | 251° |
| 2026-05-05 13:37 | 51.88652 | 4.53265 | 4895 ft | 167 kts | 236° |
| 2026-05-05 13:37 | 51.87941 | 4.51772 | 4890 ft | 168 kts | 233° |
| 2026-05-05 13:37 | 51.87219 | 4.50317 | 4889 ft | 168 kts | 233° |
| 2026-05-05 13:38 | 51.86487 | 4.48854 | 4891 ft | 168 kts | 232° |
| 2026-05-05 13:38 | 51.85746 | 4.47377 | 4895 ft | 168 kts | 232° |
| 2026-05-05 13:38 | 51.85014 | 4.45917 | 4897 ft | 168 kts | 232° |
| 2026-05-05 13:38 | 51.84279 | 4.44456 | 4890 ft | 168 kts | 232° |
| 2026-05-05 13:39 | 51.83540 | 4.42986 | 4886 ft | 168 kts | 232° |
| 2026-05-05 13:39 | 51.82803 | 4.41522 | 4894 ft | 168 kts | 232° |
| 2026-05-05 13:39 | 51.82066 | 4.40056 | 4892 ft | 168 kts | 232° |
| 2026-05-05 13:39 | 51.81333 | 4.38601 | 4893 ft | 168 kts | 232° |
| 2026-05-05 13:40 | 51.80593 | 4.37133 | 4888 ft | 168 kts | 232° |
| 2026-05-05 13:40 | 51.79849 | 4.35658 | 4898 ft | 169 kts | 232° |
| 2026-05-05 13:40 | 51.79110 | 4.34192 | 4900 ft | 169 kts | 232° |
| 2026-05-05 13:40 | 51.78368 | 4.32722 | 4895 ft | 169 kts | 232° |
| 2026-05-05 13:41 | 51.77628 | 4.31255 | 4894 ft | 169 kts | 232° |
| 2026-05-05 13:41 | 51.76888 | 4.29790 | 4891 ft | 169 kts | 232° |
| 2026-05-05 13:41 | 51.76144 | 4.28318 | 4895 ft | 169 kts | 232° |
| 2026-05-05 13:41 | 51.75400 | 4.26839 | 4897 ft | 169 kts | 234° |
| 2026-05-05 13:42 | 51.75096 | 4.25093 | 4690 ft | 164 kts | 281° |
| 2026-05-05 13:42 | 51.75603 | 4.23564 | 4492 ft | 154 kts | 324° |
| 2026-05-05 13:42 | 51.76505 | 4.22675 | 4291 ft | 150 kts | 336° |
| 2026-05-05 13:42 | 51.77422 | 4.21937 | 4114 ft | 147 kts | 339° |
| 2026-05-05 13:43 | 51.78347 | 4.21229 | 3958 ft | 145 kts | 340° |
| 2026-05-05 13:43 | 51.79245 | 4.20552 | 3805 ft | 143 kts | 340° |
| 2026-05-05 13:43 | 51.80159 | 4.19997 | 3640 ft | 138 kts | 360° |
| 2026-05-05 13:43 | 51.81110 | 4.20064 | 3495 ft | 135 kts | 8° |
| 2026-05-05 13:44 | 51.82038 | 4.20213 | 3336 ft | 134 kts | 10° |
| 2026-05-05 13:44 | 51.82959 | 4.20377 | 3184 ft | 133 kts | 10° |
| 2026-05-05 13:44 | 51.83871 | 4.20544 | 3032 ft | 132 kts | 11° |
| 2026-05-05 13:44 | 51.84777 | 4.20714 | 2876 ft | 132 kts | 11° |
| 2026-05-05 13:45 | 51.85695 | 4.20885 | 2719 ft | 131 kts | 11° |
| 2026-05-05 13:45 | 51.86485 | 4.21478 | 2561 ft | 127 kts | 47° |
| 2026-05-05 13:45 | 51.87035 | 4.22591 | 2415 ft | 127 kts | 52° |
| 2026-05-05 13:45 | 51.87532 | 4.23785 | 2266 ft | 127 kts | 54° |
| 2026-05-05 13:46 | 51.88014 | 4.24960 | 2111 ft | 127 kts | 55° |
| 2026-05-05 13:46 | 51.88493 | 4.26147 | 1999 ft | 123 kts | 54° |
| 2026-05-05 13:46 | 51.88949 | 4.27274 | 1981 ft | 118 kts | 55° |
| 2026-05-05 13:46 | 51.89363 | 4.28303 | 1998 ft | 105 kts | 55° |
| 2026-05-05 13:47 | 51.89758 | 4.29282 | 1947 ft | 103 kts | 55° |
| 2026-05-05 13:47 | 51.90145 | 4.30241 | 1828 ft | 99 kts | 55° |
| 2026-05-05 13:47 | 51.90519 | 4.31171 | 1704 ft | 99 kts | 55° |
| 2026-05-05 13:47 | 51.90895 | 4.32101 | 1581 ft | 99 kts | 54° |
| 2026-05-05 13:48 | 51.91269 | 4.33033 | 1456 ft | 99 kts | 54° |
| 2026-05-05 13:48 | 51.91646 | 4.33969 | 1327 ft | 100 kts | 55° |
| 2026-05-05 13:48 | 51.92028 | 4.34903 | 1195 ft | 100 kts | 57° |
| 2026-05-05 13:48 | 51.92407 | 4.35857 | 1060 ft | 100 kts | 57° |
| 2026-05-05 13:49 | 51.92792 | 4.36810 | 926 ft | 101 kts | 53° |
| 2026-05-05 13:49 | 51.93175 | 4.37774 | 790 ft | 102 kts | 56° |
| 2026-05-05 13:49 | 51.93564 | 4.38727 | 654 ft | 103 kts | 56° |
| 2026-05-05 13:49 | 51.93949 | 4.39712 | 514 ft | 103 kts | 58° |
| 2026-05-05 13:50 | 51.94336 | 4.40646 | 376 ft | 96 kts | 58° |
| 2026-05-05 13:50 | 51.94669 | 4.41499 | 253 ft | 86 kts | 55° |
| 2026-05-05 13:50 | 51.95001 | 4.42302 | 130 ft | 84 kts | 56° |
| 2026-05-05 13:50 | 51.95316 | 4.43083 | 29 ft | 83 kts | 60° |
| 2026-05-05 13:51 | 51.95601 | 4.43805 | -12 ft | 62 kts | 58° |
| 2026-05-05 13:51 | 51.95789 | 4.44281 | -12 ft | 40 kts | 53° |
| 2026-05-05 13:51 | 51.95899 | 4.44555 | -12 ft | 21 kts | 67° |
| 2026-05-05 13:51 | 51.95858 | 4.44729 | -12 ft | 16 kts | 144° |
| 2026-05-05 13:52 | 51.95826 | 4.44759 | -13 ft | 0 kts | 158° |
| 2026-05-05 13:52 | 51.95822 | 4.44761 | -12 ft | 4 kts | 164° |
| 2026-05-05 13:52 | 51.95758 | 4.44693 | -13 ft | 15 kts | 237° |
| 2026-05-05 13:52 | 51.95692 | 4.44526 | -12 ft | 19 kts | 238° |
| 2026-05-05 13:53 | 51.95614 | 4.44330 | -12 ft | 22 kts | 237° |
| 2026-05-05 13:53 | 51.95527 | 4.44112 | -12 ft | 20 kts | 240° |
| 2026-05-05 13:53 | 51.95472 | 4.43971 | -12 ft | 15 kts | 236° |
| 2026-05-05 13:53 | 51.95404 | 4.43806 | -12 ft | 19 kts | 238° |
| 2026-05-05 13:54 | 51.95327 | 4.43608 | -12 ft | 21 kts | 238° |
| 2026-05-05 13:54 | 51.95246 | 4.43513 | -12 ft | 15 kts | 161° |
| 2026-05-05 13:54 | 51.95145 | 4.43614 | -12 ft | 18 kts | 148° |
| 2026-05-05 13:54 | 51.95038 | 4.43731 | -12 ft | 16 kts | 148° |
| 2026-05-05 13:55 | 51.95040 | 4.43838 | -13 ft | 12 kts | 58° |
| 2026-05-05 13:55 | 51.95070 | 4.43838 | -12 ft | 0 kts | 336° |
| 2026-05-05 13:55 | 51.95071 | 4.43846 | -12 ft | 2 kts | 120° |
| 2026-05-05 13:55 | 51.95069 | 4.43849 | -12 ft | 0 kts | 144° |